Sierra Nevada Aquatic Research Lab (SNARL) Reserve, Santa Monica Mtns, California Weather observations

Data are for 10 minute period ending at time listed.
 Day   Time   Solar   Ave.   Ave.  Ave.  Vector  Max.   Baro.   Total    
  of    of     Rad.   Air    Rel.  Wind   Wind   Wind  Press.  Precip.   
Year   Day            Temp.  Hum.  Speed  Dir.   Gust                    
2014   (PST)  Kw/m2    F      %     mph   deg.    mph    mb.     in.     
-------------------------------------------------------------------------
 211    0:00   0.00   55.5    72    2.1   219     4.6   790.9    0.00 
 211    0:10   0.00   54.9    73    2.8   273     5.9   790.8    0.00 
 211    0:20   0.00   54.5    74    1.4   315     3.5   790.8    0.00 
 211    0:30   0.00   53.5    77    2.1   109     3.8   790.9    0.00 
 211    0:40   0.00   51.9    81    1.5   274     3.4   790.9    0.00 
 211    0:50   0.00   51.4    81    1.3   245     3.5   790.9    0.00 
 211    1:00   0.00   51.6    80    1.6   325     3.8   790.8    0.00 
 211    1:10   0.00   50.5    83    2.2   324     6.1   790.8    0.00 
 211    1:20   0.00   50.3    84    1.4   326     5.0   790.8    0.00 
 211    1:30   0.00   51.1    80    3.6   331     7.1   790.8    0.00 
 211    1:40   0.00   51.5    81    0.9   222     3.4   790.8    0.00 
 211    1:50   0.00   52.1    78    3.3   289     7.0   790.8    0.00 
 211    2:00   0.00   52.2    78    1.2   254     3.5   790.7    0.00 
 211    2:10   0.00   52.2    77    2.1    58     4.3   790.7    0.00 
 211    2:20   0.00   52.5    74    4.0   342     8.3   790.7    0.00 
 211    2:30   0.00   53.7    70    2.7   349     6.1   790.7    0.00 
 211    2:40   0.00   53.2    72    1.2   222     2.7   790.7    0.00 
 211    2:50   0.00   51.9    78    2.0   315     4.6   790.6    0.00 
 211    3:00   0.00   51.3    80    0.9   337     3.8   790.7    0.00 
 211    3:10   0.00   50.7    81    1.5   293     3.6   790.7    0.00 
 211    3:20   0.00   50.9    80    1.5   253     2.6   790.6    0.00 
 211    3:30   0.00   51.2    79    1.4    36     3.7   790.5    0.00 
 211    3:40   0.00   51.7    76    4.3     9     7.7   790.6    0.00 
 211    3:50   0.00   53.7    69    4.6   343     7.3   790.6    0.00 
 211    4:00   0.00   53.8    69    3.3   332     6.6   790.6    0.00 
 211    4:10   0.00   53.3    72    0.3   130     1.5   790.6    0.00 
 211    4:20   0.00   53.1    73    0.3   343     1.5   790.6    0.00 
 211    4:30   0.00   52.9    74    0.9   159     1.8   790.6    0.00 
 211    4:40   0.00   52.4    78    1.0   212     2.2   790.6    0.00 
 211    4:50   0.00   52.4    78    1.5   117     3.4   790.6    0.00 
 211    5:00   0.00   52.5    77    1.0   332     3.1   790.6    0.00 
 211    5:10   0.00   52.3    80    1.4   151     2.8   790.7    0.00 
 211    5:20   0.00   52.6    80    0.5   328     1.8   790.6    0.00 
 211    5:30   0.01   52.8    80    1.8   143     3.6   790.6    0.00 
 211    5:40   0.02   53.3    77    1.0    11     2.8   790.7    0.00 
 211    5:50   0.03   54.0    75    1.4   135     3.5   790.8    0.00 
 211    6:00   0.05   54.8    75    0.9   125     2.6   790.8    0.00 
 211    6:10   0.05   55.0    77    1.4   291     2.2   790.8    0.00 
 211    6:20   0.05   55.7    72    0.9   348     2.1   790.9    0.00 
 211    6:30   0.05   57.2    69    1.9   172     3.4   791.0    0.00 
 211    6:40   0.06   57.6    70    0.3   224     1.9   791.1    0.00 
 211    6:50   0.07   58.6    65    3.5   259     6.6   791.1    0.00 
 211    7:00   0.07   60.6    58    2.9   260     5.2   791.2    0.00 
 211    7:10   0.07   61.4    59    1.1    16     3.6   791.3    0.00 
 211    7:20   0.08   60.7    62    1.5   308     3.6   791.3    0.00 
 211    7:30   0.10   60.8    64    3.3   269     4.7   791.3    0.00 
 211    7:40   0.11   61.9    57    3.0   276     5.3   791.3    0.00 
 211    7:50   0.08   62.9    55    3.4   271     5.7   791.4    0.00 
 211    8:00   0.06   62.8    55    4.1   293     6.4   791.6    0.00 
 211    8:10   0.04   62.3    54    6.7   281    11.1   791.7    0.00 
 211    8:20   0.04   62.2    55    6.0   273     9.2   791.8    0.00 
 211    8:30   0.03   61.8    55    9.4   276    21.3   792.0    0.00 
 211    8:40   0.03   63.4    49   14.4   236    20.9   792.4    0.00 
 211    8:50   0.04   61.1    60   16.2   211    24.0   792.6    0.00 
 211    9:00   0.05   58.5    71   14.5   214    18.7   792.8    0.00 
 211    9:10   0.04   57.5    74   12.7   230    15.8   792.9    0.00 
 211    9:20   0.02   58.5    67   13.1   225    19.5   793.1    0.01 
 211    9:30   0.01   58.0    70   14.8   212    22.5   793.3    0.01 
 211    9:40   0.02   56.4    76   15.2   215    24.1   793.6    0.03 
 211    9:50   0.04   55.3    80   11.9   229    16.7   793.7    0.01 
 211   10:00   0.05   55.4    80    6.9   259    12.7   793.5    0.02 
 211   10:10   0.07   54.7    86    6.5   277    10.9   793.8    0.00 
 211   10:20   0.07   54.5    87    3.9   274     8.2   793.7    0.00 
 211   10:30   0.07   54.5    90    3.5   278     8.5   793.7    0.01 
 211   10:40   0.14   55.0    90    2.5   282     5.6   793.8    0.00 
 211   10:50   0.28   56.2    86    4.1   300     8.1   793.9    0.00 
 211   11:00   0.36   57.7    83    3.2   305     8.2   793.7    0.00 
 211   11:10   0.49   58.9    79    4.1   312     8.2   793.6    0.00 
 211   11:20   0.43   60.4    76    3.6   302     6.5   793.6    0.00 
 211   11:30   0.46   61.5    71    2.1   318     6.5   793.7    0.00 
 211   11:40   0.40   61.9    72    2.4    66     4.9   793.9    0.00 
 211   11:50   0.29   60.6    75    2.2    64     4.6   793.8    0.00 
 211   12:00   0.24   61.0    73    1.3    74     2.6   793.7    0.00 
 211   12:10   0.19   61.3    74    0.6   128     2.4   793.5    0.00 
 211   12:20   0.18   61.5    70    0.5   307     2.1   793.5    0.00 
 211   12:30   0.22   61.9    69    1.4   253     2.8   793.3    0.00 
 211   12:40   0.32   62.7    65    1.4   268     3.4   793.2    0.00 
 211   12:50   0.32   63.4    60    1.1   264     3.7   793.2    0.00 
 211   13:00   0.28   64.0    59    0.9    41     3.3   793.1    0.00 
 211   13:10   0.25   63.2    68    2.1    79     3.9   793.0    0.00 
 211   13:20   0.25   63.2    69    0.6    37     2.0   793.0    0.00 
 211   13:30   0.23   63.0    71    4.6    73     9.7   792.9    0.00 
 211   13:40   0.24   62.2    75    3.1    58     6.7   793.0    0.00 
 211   13:50   0.27   62.1    74    3.3    66     6.7   792.8    0.00 
 211   14:00   0.31   62.7    72    3.3    65     7.4   792.8    0.00 
 211   14:10   0.32   62.9    72    5.3    79     9.1   792.7    0.00 
 211   14:20   0.33   62.8    72    7.5    88    10.5   792.6    0.00 
 211   14:30   0.27   62.6    72    6.8    86    10.4   792.6    0.00 
 211   14:40   0.51   63.0    70    5.4    86     8.8   792.5    0.00 
 211   14:50   0.41   65.2    59    2.3    83     4.5   792.4    0.00 
 211   15:00   0.41   65.8    58    3.9   103     8.8   792.3    0.00 
 211   15:10   0.27   65.8    58    6.1   109     9.9   792.2    0.00 
 211   15:20   0.22   65.2    59    3.4    73     8.2   792.2    0.00 
 211   15:30   0.20   65.1    58    2.4    86     4.4   792.2    0.00 
 211   15:40   0.19   65.6    59    0.7    48     3.4   792.2    0.00 
 211   15:50   0.21   65.8    56    0.8    70     3.2   792.1    0.00 
 211   16:00   0.24   66.2    57    1.9   324     3.2   792.1    0.00 
 211   16:10   0.25   66.0    57    1.9   325     3.5   792.0    0.00 
 211   16:20   0.28   66.5    55    1.7    68     3.4   791.8    0.00 
 211   16:30   0.37   67.6    53    0.8   292     2.3   791.8    0.00 
 211   16:40   0.23   68.0    52    1.3   315     3.7   791.6    0.00 
 211   16:50   0.19   67.1    54    1.6   273     2.9   791.5    0.00 
 211   17:00   0.17   66.9    56    1.1   300     2.5   791.3    0.00 
 211   17:10   0.15   67.0    55    1.1   282     2.9   791.3    0.00 
 211   17:20   0.12   66.2    58    3.0   294     5.5   791.4    0.00 
 211   17:30   0.08   65.0    60    3.7   282     5.6   791.5    0.00 
 211   17:40   0.08   64.5    60    3.5   277     5.0   791.5    0.00 
 211   17:50   0.08   64.5    62    2.8   276     4.2   791.5    0.00 
 211   18:00   0.07   64.5    61    2.4   251     4.7   791.5    0.00 
 211   18:10   0.05   63.7    64    1.6    53     3.3   791.5    0.00 
 211   18:20   0.04   62.9    67    2.0    58     3.7   791.5    0.00 
 211   18:30   0.03   62.1    69    2.5    79     4.7   791.4    0.00 
 211   18:40   0.03   61.5    72    0.6    25     1.9   791.4    0.00 
 211   18:50   0.01   60.3    76    0.0   136     0.6   791.4    0.00 
 211   19:00   0.00   59.0    80    0.4   239     1.6   791.4    0.00 
 211   19:10   0.00   58.1    82    0.1    31     0.9   791.4    0.00 
 211   19:20   0.00   56.6    84    2.7   218     4.9   791.4    0.00 
 211   19:30   0.00   55.5    84    3.4   230     5.0   791.3    0.00 
 211   19:40   0.00   55.3    84    3.9   237     5.3   791.2    0.00 
 211   19:50   0.00   55.9    82    3.3   258     4.9   791.2    0.00 
 211   20:00   0.00   56.2    80    3.3   267     5.6   791.3    0.00 
 211   20:10   0.00   56.4    80    3.2   275     4.9   791.3    0.00 
 211   20:20   0.00   56.4    80    3.2   315     5.5   791.3    0.00 
 211   20:30   0.00   55.6    82    0.7   328     3.3   791.4    0.00 
 211   20:40   0.00   54.1    85    0.9   178     2.1   791.4    0.00 
 211   20:50   0.00   52.9    88    1.7   270     2.7   791.4    0.00 
 211   21:00   0.00   52.7    90    1.8   337     4.2   791.4    0.00 
 211   21:10   0.00   52.4    88    2.6   233     4.3   791.4    0.00 
 211   21:20   0.00   51.4    90    2.7   236     4.0   791.5    0.00 
 211   21:30   0.00   51.1    90    2.1   306     4.7   791.7    0.00 
 211   21:40   0.00   50.4    90    2.9   169     4.2   791.8    0.00 
 211   21:50   0.00   50.8    90    5.3   200     7.2   791.7    0.00 
 211   22:00   0.00   51.8    88    6.2   204     9.0   791.6    0.00 
 211   22:10   0.00   53.5    82    6.7   197    10.7   791.5    0.00 
 211   22:20   0.00   54.1    81    3.2   292     5.7   791.5    0.00 
 211   22:30   0.00   54.7    78    6.1   324    12.8   791.4    0.00 
 211   22:40   0.00   54.6    78    4.8   282    10.1   791.4    0.00 
 211   22:50   0.00   55.1    76    4.5   278     8.9   791.4    0.00 
 211   23:00   0.00   55.9    72    6.0   300     8.3   791.4    0.00 
 211   23:10   0.00   55.3    74    4.7   250     8.8   791.3    0.00 

Return to SNARL Reserve graphs page.


Western Regional Climate Center,wrcc@dri.edu